createdAt,value
2024-01-24T00:00:35.986Z,1.33
2024-01-24T00:03:02.794Z,1.35
2024-01-24T00:05:29.456Z,1.20
2024-01-24T00:07:56.056Z,1.10
2024-01-24T00:10:24.287Z,1.10
2024-01-24T00:12:50.905Z,1.30
2024-01-24T00:15:17.540Z,1.23
2024-01-24T00:17:44.129Z,1.17
2024-01-24T00:20:13.577Z,1.10
2024-01-24T00:22:40.160Z,1.08
2024-01-24T00:25:07.264Z,1.10
2024-01-24T00:27:33.793Z,1.10
2024-01-24T00:30:00.332Z,0.80
2024-01-24T00:32:26.844Z,1.10
2024-01-24T00:34:53.387Z,1.10
2024-01-24T00:37:19.902Z,1.20
2024-01-24T00:39:48.540Z,1.08
2024-01-24T00:42:15.260Z,1.10
2024-01-24T00:44:43.578Z,1.30
2024-01-24T00:47:10.130Z,1.02
2024-01-24T00:49:36.744Z,1.10
2024-01-24T00:52:05.022Z,1.20
2024-01-24T00:54:31.542Z,1.27
2024-01-24T00:56:58.071Z,0.98
2024-01-24T00:59:24.619Z,1.30
2024-01-24T01:01:51.113Z,1.10
2024-01-24T01:04:17.759Z,1.23
2024-01-24T01:06:44.555Z,1.00
2024-01-24T01:09:11.922Z,1.00
2024-01-24T01:11:39.666Z,1.00
2024-01-24T01:14:06.356Z,0.90
2024-01-24T01:16:32.904Z,1.02
2024-01-24T01:19:00.065Z,0.90
2024-01-24T01:21:26.689Z,0.80
2024-01-24T01:23:53.211Z,0.93
2024-01-24T01:26:20.210Z,0.95
2024-01-24T01:28:46.708Z,0.85
2024-01-24T01:31:13.233Z,0.90
2024-01-24T01:33:39.866Z,0.80
2024-01-24T01:36:17.207Z,0.75
2024-01-24T01:38:49.216Z,0.70
2024-01-24T01:41:15.741Z,0.70
2024-01-24T01:43:44.255Z,0.60
2024-01-24T01:46:20.313Z,0.63
2024-01-24T01:48:47.928Z,0.60
2024-01-24T01:51:14.796Z,0.45
2024-01-24T01:53:41.437Z,0.50
2024-01-24T01:56:13.632Z,0.43
2024-01-24T01:58:41.867Z,0.43
2024-01-24T02:01:09.806Z,0.65
2024-01-24T02:03:38.190Z,0.40
2024-01-24T02:06:05.361Z,0.38
2024-01-24T02:08:33.639Z,0.30
2024-01-24T02:11:00.364Z,0.37
2024-01-24T02:13:33.500Z,0.40
2024-01-24T02:16:00.867Z,0.43
2024-01-24T02:18:27.673Z,0.32
2024-01-24T02:20:54.303Z,0.30
2024-01-24T02:23:23.319Z,0.30
2024-01-24T02:25:50.966Z,0.30
2024-01-24T02:28:18.026Z,0.40
2024-01-24T02:30:44.714Z,0.30
2024-01-24T02:33:12.060Z,0.30
2024-01-24T02:35:38.893Z,0.20
2024-01-24T02:38:05.482Z,0.20
2024-01-24T02:40:32.157Z,0.25
2024-01-24T02:42:58.758Z,0.30
2024-01-24T02:45:25.342Z,0.20
2024-01-24T02:47:52.022Z,0.40
2024-01-24T02:50:18.701Z,0.20
2024-01-24T02:52:45.269Z,0.40
2024-01-24T02:55:17.794Z,0.28
2024-01-24T02:57:45.352Z,0.35
2024-01-24T03:00:14.337Z,0.40
2024-01-24T03:02:41.262Z,0.35
2024-01-24T03:05:10.167Z,0.50
2024-01-24T03:07:38.095Z,0.30
2024-01-24T03:10:05.677Z,0.43
2024-01-24T03:12:32.404Z,0.50
2024-01-24T03:14:58.985Z,0.50
2024-01-24T03:17:25.501Z,0.55
2024-01-24T03:19:52.430Z,0.50
2024-01-24T03:22:19.587Z,0.52
2024-01-24T03:24:46.091Z,0.40
2024-01-24T03:27:12.958Z,0.50
2024-01-24T03:29:42.142Z,0.60
2024-01-24T03:32:08.645Z,0.50
2024-01-24T03:34:35.280Z,0.50
2024-01-24T03:37:01.826Z,0.40
2024-01-24T03:39:28.937Z,0.32
2024-01-24T03:41:55.498Z,0.40
2024-01-24T03:44:21.988Z,0.40
2024-01-24T03:46:48.513Z,0.52
2024-01-24T03:49:15.950Z,0.30
2024-01-24T03:51:42.719Z,0.40
2024-01-24T03:54:09.265Z,0.30
2024-01-24T03:56:35.760Z,0.30
2024-01-24T03:59:02.322Z,0.30
2024-01-24T04:01:29.039Z,0.30
2024-01-24T04:03:55.849Z,0.30
2024-01-24T04:06:22.675Z,0.20
2024-01-24T04:08:49.309Z,0.40
2024-01-24T04:11:15.812Z,0.38
2024-01-24T04:13:43.567Z,0.30
2024-01-24T04:16:10.157Z,0.30
2024-01-24T04:18:36.835Z,0.40
2024-01-24T04:21:03.543Z,0.30
2024-01-24T04:23:30.057Z,0.20
2024-01-24T04:25:56.825Z,0.30
2024-01-24T04:28:23.328Z,0.30
2024-01-24T04:30:49.882Z,0.30
2024-01-24T04:33:16.535Z,0.20
2024-01-24T04:35:43.131Z,0.30
2024-01-24T04:38:09.649Z,0.28
2024-01-24T04:40:36.207Z,0.30
2024-01-24T04:43:03.019Z,0.35
2024-01-24T04:45:29.636Z,0.30
2024-01-24T04:47:56.311Z,0.40
2024-01-24T04:50:23.411Z,0.20
2024-01-24T04:52:50.007Z,0.40
2024-01-24T04:55:16.860Z,0.30
2024-01-24T04:57:43.785Z,0.20
2024-01-24T05:00:13.174Z,0.25
2024-01-24T05:02:40.481Z,0.20
2024-01-24T05:05:08.131Z,0.20
2024-01-24T05:07:36.010Z,0.10
2024-01-24T05:10:04.669Z,0.30
2024-01-24T05:12:31.908Z,0.30
2024-01-24T05:14:58.559Z,0.30
2024-01-24T05:17:25.244Z,0.30
2024-01-24T05:19:51.781Z,0.20
2024-01-24T05:22:18.810Z,0.20
2024-01-24T05:24:46.519Z,0.30
2024-01-24T05:27:14.151Z,0.30
2024-01-24T05:29:40.831Z,0.22
2024-01-24T05:32:07.975Z,0.50
2024-01-24T05:34:34.614Z,0.20
2024-01-24T05:37:01.297Z,0.33
2024-01-24T05:39:27.900Z,0.30
2024-01-24T05:41:54.405Z,0.20
2024-01-24T05:44:21.910Z,0.30
2024-01-24T05:46:48.412Z,0.30
2024-01-24T05:49:15.636Z,0.40
2024-01-24T05:51:43.655Z,0.30
2024-01-24T05:54:10.475Z,0.20
2024-01-24T05:56:37.134Z,0.30
2024-01-24T05:59:03.698Z,0.20
2024-01-24T06:01:30.525Z,0.40
2024-01-24T06:03:57.328Z,0.20
2024-01-24T06:06:24.200Z,0.43
2024-01-24T06:08:51.057Z,0.30
2024-01-24T06:11:18.420Z,0.30
2024-01-24T06:13:45.078Z,0.30
2024-01-24T06:16:11.691Z,0.20
2024-01-24T06:18:38.316Z,0.32
2024-01-24T06:21:04.997Z,0.20
2024-01-24T06:23:31.505Z,0.40
2024-01-24T06:25:58.002Z,0.30
2024-01-24T06:28:24.513Z,0.40
2024-01-24T06:30:52.662Z,0.38
2024-01-24T06:33:19.421Z,0.60
2024-01-24T06:35:46.026Z,0.45
2024-01-24T06:38:12.583Z,0.40
2024-01-24T06:40:39.120Z,0.60
2024-01-24T06:43:05.711Z,0.28
2024-01-24T06:45:32.492Z,0.45
2024-01-24T06:48:02.042Z,0.57
2024-01-24T06:50:30.443Z,0.20
2024-01-24T06:52:58.705Z,0.20
2024-01-24T06:55:25.765Z,0.30
2024-01-24T06:57:52.310Z,0.30
2024-01-24T07:00:20.017Z,0.30
2024-01-24T07:02:46.711Z,0.20
2024-01-24T07:05:13.990Z,0.30
2024-01-24T07:07:40.519Z,0.50
2024-01-24T07:10:12.339Z,0.30
2024-01-24T07:12:46.098Z,0.23
2024-01-24T07:15:13.577Z,0.30
2024-01-24T07:17:40.852Z,0.68
2024-01-24T07:20:08.356Z,0.30
2024-01-24T07:22:34.924Z,0.30
2024-01-24T07:25:02.384Z,0.52
2024-01-24T07:27:31.724Z,0.45
2024-01-24T07:29:58.994Z,0.68
2024-01-24T07:32:25.594Z,0.85
2024-01-24T07:34:52.211Z,1.02
2024-01-24T07:37:18.985Z,1.45
2024-01-24T07:39:45.596Z,0.98
2024-01-24T07:42:12.106Z,0.68
2024-01-24T07:44:38.616Z,0.90
2024-01-24T07:47:05.809Z,1.35
2024-01-24T07:49:36.588Z,1.42
2024-01-24T07:52:05.462Z,0.98
2024-01-24T07:54:32.279Z,1.25
2024-01-24T07:56:59.288Z,1.30
2024-01-24T07:59:25.997Z,1.50
2024-01-24T08:01:52.593Z,1.20
2024-01-24T08:04:19.692Z,1.50
2024-01-24T08:06:48.747Z,1.10
2024-01-24T08:09:15.811Z,1.13
2024-01-24T08:11:42.743Z,1.40
2024-01-24T08:14:09.852Z,1.35
2024-01-24T08:16:36.450Z,1.40
2024-01-24T08:19:03.842Z,1.40
2024-01-24T08:21:30.644Z,1.42
2024-01-24T08:23:57.165Z,1.42
2024-01-24T08:26:23.912Z,1.40
2024-01-24T08:28:50.500Z,1.35
2024-01-24T08:31:17.090Z,1.25
2024-01-24T08:33:43.842Z,1.65
2024-01-24T08:36:10.648Z,1.58
2024-01-24T08:38:37.251Z,1.70
2024-01-24T08:41:05.258Z,1.55
2024-01-24T08:43:31.807Z,1.38
2024-01-24T08:45:59.060Z,1.17
2024-01-24T08:48:26.302Z,1.30
2024-01-24T08:50:53.347Z,1.47
2024-01-24T08:53:19.893Z,1.20
2024-01-24T08:55:46.755Z,1.30
2024-01-24T08:58:14.010Z,1.30
2024-01-24T09:00:41.032Z,1.50
2024-01-24T09:03:07.856Z,1.60
2024-01-24T09:05:34.974Z,1.15
2024-01-24T09:08:02.831Z,1.03
2024-01-24T09:10:29.823Z,1.23
2024-01-24T09:12:56.496Z,1.25
2024-01-24T09:15:23.970Z,1.60
2024-01-24T09:17:51.632Z,1.13
2024-01-24T09:20:18.808Z,1.30
2024-01-24T09:22:46.561Z,1.70
2024-01-24T09:25:14.812Z,1.23
2024-01-24T09:27:42.199Z,1.50
2024-01-24T09:30:09.176Z,1.45
2024-01-24T09:32:35.758Z,1.35
2024-01-24T09:35:02.469Z,1.60
2024-01-24T09:37:29.118Z,1.50
2024-01-24T09:39:56.917Z,1.70
2024-01-24T09:42:26.661Z,1.40
2024-01-24T09:44:53.948Z,1.80
2024-01-24T09:47:23.382Z,1.60
2024-01-24T09:49:50.603Z,1.77
2024-01-24T09:52:26.257Z,1.48
2024-01-24T09:55:00.323Z,1.67
2024-01-24T09:57:28.270Z,2.00
2024-01-24T09:59:55.772Z,2.20
2024-01-24T10:02:23.279Z,2.63
2024-01-24T10:04:52.920Z,2.20
2024-01-24T10:07:20.758Z,2.10
2024-01-24T10:09:48.363Z,2.60
2024-01-24T10:12:14.933Z,2.50
2024-01-24T10:14:44.359Z,3.00
2024-01-24T10:17:12.607Z,3.20
2024-01-24T10:19:39.658Z,3.70
2024-01-24T10:22:09.395Z,3.67
2024-01-24T10:24:37.704Z,3.80
2024-01-24T10:27:04.539Z,4.22
2024-01-24T10:29:31.737Z,4.10
2024-01-24T10:31:58.407Z,4.60
2024-01-24T10:34:29.068Z,4.07
2024-01-24T10:36:56.165Z,3.70
2024-01-24T10:39:26.383Z,4.70
2024-01-24T10:41:55.724Z,5.65
2024-01-24T10:44:26.338Z,4.10
2024-01-24T10:46:53.307Z,5.45
2024-01-24T10:49:22.705Z,6.68
2024-01-24T10:51:49.503Z,4.22
2024-01-24T10:54:17.903Z,4.45
2024-01-24T10:56:51.367Z,4.30
2024-01-24T10:59:19.000Z,4.50
2024-01-24T11:01:46.213Z,4.65
2024-01-24T11:04:16.642Z,4.73
2024-01-24T11:06:49.577Z,5.63
2024-01-24T11:09:25.524Z,5.17
2024-01-24T11:11:55.951Z,5.45
2024-01-24T11:14:36.059Z,5.60
2024-01-24T11:17:04.648Z,5.13
2024-01-24T11:19:32.449Z,5.35
2024-01-24T11:22:13.051Z,5.60
2024-01-24T11:24:46.392Z,4.93
2024-01-24T11:27:25.218Z,5.80
2024-01-24T11:29:52.644Z,5.70
2024-01-24T11:32:55.887Z,6.03
2024-01-24T11:35:38.976Z,6.97
2024-01-24T11:38:30.155Z,6.07
2024-01-24T11:41:00.942Z,6.18
2024-01-24T11:43:32.704Z,6.22
2024-01-24T11:46:04.799Z,5.68
2024-01-24T11:48:33.569Z,5.50
2024-01-24T11:51:02.038Z,5.83
2024-01-24T11:53:29.266Z,5.70
2024-01-24T11:56:02.823Z,6.15
2024-01-24T11:58:30.323Z,5.63
2024-01-24T12:01:12.189Z,6.43
2024-01-24T12:03:47.140Z,5.07
2024-01-24T12:06:14.012Z,5.93
2024-01-24T12:08:40.595Z,5.82
2024-01-24T12:11:10.409Z,5.07
2024-01-24T12:13:37.423Z,5.03
2024-01-24T12:16:04.519Z,4.83
2024-01-24T12:18:31.866Z,4.88
2024-01-24T12:21:02.207Z,4.63
2024-01-24T12:23:30.127Z,4.57
2024-01-24T12:25:57.511Z,5.13
2024-01-24T12:28:25.049Z,4.97
2024-01-24T12:30:54.238Z,4.82
2024-01-24T12:33:21.009Z,5.55
2024-01-24T12:35:48.309Z,4.70
2024-01-24T12:38:15.978Z,5.05
2024-01-24T12:40:51.761Z,4.87
2024-01-24T12:43:22.714Z,5.43
2024-01-24T12:45:50.485Z,3.93
2024-01-24T12:48:19.760Z,4.90
2024-01-24T12:50:49.760Z,4.75
2024-01-24T12:53:17.158Z,4.90
2024-01-24T12:55:43.707Z,4.80
2024-01-24T12:58:10.804Z,5.35
2024-01-24T13:00:37.523Z,4.95
2024-01-24T13:03:06.210Z,4.57
2024-01-24T13:05:39.664Z,5.00
2024-01-24T13:08:13.421Z,5.00
2024-01-24T13:10:44.313Z,5.10
2024-01-24T13:13:11.881Z,5.25
2024-01-24T13:15:40.294Z,4.75
2024-01-24T13:18:08.772Z,5.10
2024-01-24T13:20:35.530Z,4.60
2024-01-24T13:23:02.916Z,4.80
2024-01-24T13:25:29.923Z,5.05
2024-01-24T13:27:57.003Z,5.10
2024-01-24T13:30:23.744Z,5.03
2024-01-24T13:32:50.647Z,5.13
2024-01-24T13:35:17.670Z,4.88
2024-01-24T13:37:44.929Z,4.77
2024-01-24T13:40:12.821Z,4.87
2024-01-24T13:42:40.446Z,5.18
2024-01-24T13:45:07.631Z,5.05
2024-01-24T13:47:34.337Z,4.97
2024-01-24T13:50:01.023Z,4.70
2024-01-24T13:52:27.967Z,5.40
2024-01-24T13:54:54.581Z,5.90
2024-01-24T13:57:21.227Z,5.47
2024-01-24T13:59:47.960Z,5.45
2024-01-24T14:02:14.707Z,5.25
2024-01-24T14:04:41.658Z,5.60
2024-01-24T14:07:08.602Z,5.93
2024-01-24T14:09:37.117Z,5.40
2024-01-24T14:12:04.352Z,5.30
2024-01-24T14:14:32.411Z,5.43
2024-01-24T14:16:59.692Z,5.05
2024-01-24T14:19:26.878Z,4.88
2024-01-24T14:21:54.023Z,5.53
2024-01-24T14:24:21.431Z,5.25
2024-01-24T14:26:49.767Z,5.68
2024-01-24T14:29:16.515Z,5.35
2024-01-24T14:31:43.046Z,5.10
2024-01-24T14:34:10.245Z,5.43
2024-01-24T14:36:37.660Z,5.47
2024-01-24T14:39:07.261Z,5.75
2024-01-24T14:41:33.873Z,5.53
2024-01-24T14:44:00.560Z,5.78
2024-01-24T14:46:27.161Z,5.43
2024-01-24T14:48:54.157Z,5.30
2024-01-24T14:51:21.155Z,5.60
2024-01-24T14:53:48.011Z,5.70
2024-01-24T14:56:15.645Z,5.22
2024-01-24T14:58:42.769Z,5.77
2024-01-24T15:01:10.215Z,5.72
2024-01-24T15:03:37.251Z,6.05
2024-01-24T15:06:04.290Z,5.72
2024-01-24T15:08:31.004Z,6.22
2024-01-24T15:10:57.547Z,6.20
2024-01-24T15:13:24.138Z,5.60
2024-01-24T15:15:51.064Z,6.10
2024-01-24T15:18:18.186Z,5.67
2024-01-24T15:20:53.867Z,6.57
2024-01-24T15:23:30.022Z,6.35
2024-01-24T15:25:57.181Z,6.32
2024-01-24T15:28:23.743Z,6.70
2024-01-24T15:30:50.997Z,6.57
2024-01-24T15:33:19.261Z,6.25
2024-01-24T15:35:46.822Z,6.20
2024-01-24T15:38:13.633Z,7.22
2024-01-24T15:40:40.261Z,6.38
2024-01-24T15:43:09.819Z,6.43
2024-01-24T15:45:37.259Z,6.65
2024-01-24T15:48:04.701Z,6.80
2024-01-24T15:50:31.421Z,7.32
2024-01-24T15:52:58.166Z,6.37
2024-01-24T15:55:24.848Z,6.47
2024-01-24T15:57:52.015Z,7.00
2024-01-24T16:00:20.956Z,6.90
2024-01-24T16:02:47.670Z,6.93
2024-01-24T16:05:33.866Z,7.30
2024-01-24T16:08:03.083Z,6.65
2024-01-24T16:10:29.964Z,6.35
2024-01-24T16:12:57.076Z,6.85
2024-01-24T16:15:23.855Z,6.72
2024-01-24T16:17:50.468Z,6.93
2024-01-24T16:20:17.933Z,7.57
2024-01-24T16:22:51.019Z,6.22
2024-01-24T16:25:26.183Z,6.60
2024-01-24T16:27:53.755Z,6.70
2024-01-24T16:30:21.403Z,6.82
2024-01-24T16:32:53.962Z,6.45
2024-01-24T16:35:21.289Z,7.25
2024-01-24T16:37:47.938Z,7.13
2024-01-24T16:40:15.497Z,6.90
2024-01-24T16:42:42.621Z,6.85
2024-01-24T16:45:10.183Z,7.40
2024-01-24T16:47:36.899Z,7.40
2024-01-24T16:50:06.731Z,7.05
2024-01-24T16:52:33.817Z,6.43
2024-01-24T16:55:00.741Z,6.80
2024-01-24T16:57:27.635Z,6.85
2024-01-24T16:59:54.196Z,7.55
2024-01-24T17:02:21.128Z,6.90
2024-01-24T17:04:48.570Z,6.80
2024-01-24T17:07:15.264Z,7.38
2024-01-24T17:09:42.271Z,7.00
2024-01-24T17:12:09.150Z,7.50
2024-01-24T17:14:35.810Z,6.97
2024-01-24T17:17:04.606Z,7.65
2024-01-24T17:19:32.326Z,6.50
2024-01-24T17:21:59.185Z,8.20
2024-01-24T17:24:26.048Z,6.97
2024-01-24T17:26:53.145Z,6.82
2024-01-24T17:29:19.805Z,6.72
2024-01-24T17:31:49.053Z,7.45
2024-01-24T17:34:16.486Z,7.88
2024-01-24T17:36:43.287Z,6.78
2024-01-24T17:39:10.082Z,7.45
2024-01-24T17:41:37.085Z,7.65
2024-01-24T17:44:03.614Z,7.25
2024-01-24T17:46:30.402Z,7.32
2024-01-24T17:48:57.228Z,7.28
2024-01-24T17:51:24.011Z,8.23
2024-01-24T17:53:51.280Z,7.95
2024-01-24T17:56:18.804Z,8.63
2024-01-24T17:58:47.042Z,7.93
2024-01-24T18:01:13.899Z,7.28
2024-01-24T18:03:40.614Z,7.25
2024-01-24T18:06:07.402Z,7.78
2024-01-24T18:08:33.899Z,8.07
2024-01-24T18:11:00.415Z,7.10
2024-01-24T18:13:28.899Z,7.40
2024-01-24T18:15:56.352Z,8.13
2024-01-24T18:18:23.426Z,7.55
2024-01-24T18:20:50.703Z,7.60
2024-01-24T18:23:17.655Z,8.13
2024-01-24T18:25:45.216Z,7.45
2024-01-24T18:28:11.859Z,7.53
2024-01-24T18:30:38.435Z,7.88
2024-01-24T18:33:05.449Z,7.45
2024-01-24T18:35:32.098Z,7.47
2024-01-24T18:37:58.612Z,7.85
2024-01-24T18:40:25.103Z,7.32
2024-01-24T18:42:51.633Z,7.57
2024-01-24T18:45:18.419Z,7.35
2024-01-24T18:47:45.318Z,7.53
2024-01-24T18:50:12.136Z,7.57
2024-01-24T18:52:38.844Z,7.28
2024-01-24T18:55:06.309Z,6.75
2024-01-24T18:57:33.137Z,8.02
2024-01-24T19:00:00.256Z,7.72
2024-01-24T19:02:27.260Z,7.77
2024-01-24T19:04:54.924Z,7.28
2024-01-24T19:07:23.471Z,7.07
2024-01-24T19:09:50.217Z,6.63
2024-01-24T19:12:17.783Z,8.00
2024-01-24T19:14:45.222Z,7.82
2024-01-24T19:17:12.233Z,8.07
2024-01-24T19:19:39.513Z,7.07
2024-01-24T19:22:06.124Z,6.85
2024-01-24T19:24:34.610Z,7.63
2024-01-24T19:27:01.517Z,7.53
2024-01-24T19:29:28.263Z,6.53
2024-01-24T19:31:54.740Z,6.82
2024-01-24T19:34:21.772Z,7.55
2024-01-24T19:36:48.438Z,7.40
2024-01-24T19:39:15.165Z,7.47
2024-01-24T19:41:41.731Z,7.57
2024-01-24T19:44:08.304Z,7.35
2024-01-24T19:46:34.867Z,6.70
2024-01-24T19:49:01.489Z,7.18
2024-01-24T19:51:28.240Z,7.10
2024-01-24T19:53:56.166Z,7.15
2024-01-24T19:56:23.262Z,6.88
2024-01-24T19:58:49.850Z,6.70
2024-01-24T20:01:16.661Z,7.50
2024-01-24T20:03:43.281Z,7.13
2024-01-24T20:06:10.336Z,7.38
2024-01-24T20:08:36.953Z,7.13
2024-01-24T20:11:04.546Z,7.15
2024-01-24T20:13:32.271Z,7.60
2024-01-24T20:15:59.282Z,7.90
2024-01-24T20:18:26.602Z,7.68
2024-01-24T20:20:53.329Z,8.00
2024-01-24T20:23:19.861Z,7.43
2024-01-24T20:25:47.994Z,7.72
2024-01-24T20:28:14.692Z,7.53
2024-01-24T20:30:41.325Z,7.40
2024-01-24T20:33:07.958Z,8.07
2024-01-24T20:35:34.511Z,7.45
2024-01-24T20:38:01.725Z,7.50
2024-01-24T20:40:28.294Z,7.07
2024-01-24T20:42:54.999Z,7.85
2024-01-24T20:45:21.571Z,7.38
2024-01-24T20:47:50.470Z,7.10
2024-01-24T20:50:21.615Z,7.68
2024-01-24T20:52:48.204Z,8.27
2024-01-24T20:55:14.799Z,7.32
2024-01-24T20:57:41.371Z,7.35
2024-01-24T21:00:09.850Z,7.15
2024-01-24T21:02:36.686Z,7.68
2024-01-24T21:05:03.810Z,7.40
2024-01-24T21:07:30.596Z,8.30
2024-01-24T21:09:57.854Z,8.27
2024-01-24T21:12:24.403Z,7.35
2024-01-24T21:14:51.163Z,7.17
2024-01-24T21:17:18.247Z,7.80
2024-01-24T21:19:44.843Z,7.90
2024-01-24T21:22:11.560Z,7.68
2024-01-24T21:24:38.430Z,7.55
2024-01-24T21:27:05.217Z,7.53
2024-01-24T21:29:31.731Z,7.63
2024-01-24T21:31:59.486Z,7.40
2024-01-24T21:34:26.190Z,7.18
2024-01-24T21:36:52.952Z,6.93
2024-01-24T21:39:19.562Z,8.20
2024-01-24T21:41:46.045Z,6.95
2024-01-24T21:44:12.579Z,8.18
2024-01-24T21:46:39.074Z,7.55
2024-01-24T21:49:05.709Z,7.90
2024-01-24T21:51:32.360Z,7.90
2024-01-24T21:53:58.986Z,7.60
2024-01-24T21:56:25.906Z,7.47
2024-01-24T21:58:55.979Z,7.70
2024-01-24T22:01:24.040Z,7.85
2024-01-24T22:03:50.962Z,7.72
2024-01-24T22:06:17.725Z,7.40
2024-01-24T22:08:44.462Z,7.97
2024-01-24T22:11:10.978Z,7.70
2024-01-24T22:13:37.523Z,7.22
2024-01-24T22:16:05.488Z,7.60
2024-01-24T22:18:37.060Z,7.93
2024-01-24T22:21:13.661Z,8.27
2024-01-24T22:23:40.657Z,7.95
2024-01-24T22:26:07.219Z,7.40
2024-01-24T22:28:33.732Z,7.75
2024-01-24T22:31:00.399Z,7.10
2024-01-24T22:33:27.129Z,6.80
2024-01-24T22:35:54.094Z,7.93
2024-01-24T22:38:20.757Z,7.40
2024-01-24T22:40:47.358Z,6.80
2024-01-24T22:43:14.006Z,7.25
2024-01-24T22:45:40.800Z,7.13
2024-01-24T22:48:07.919Z,7.78
2024-01-24T22:50:34.680Z,7.37
2024-01-24T22:53:01.325Z,7.53
2024-01-24T22:55:28.087Z,7.22
2024-01-24T22:57:54.946Z,7.30
2024-01-24T23:00:23.034Z,7.10
2024-01-24T23:02:50.035Z,6.78
2024-01-24T23:05:17.206Z,7.00
2024-01-24T23:07:44.237Z,7.70
2024-01-24T23:10:11.405Z,7.53
2024-01-24T23:12:38.628Z,7.18
2024-01-24T23:15:06.355Z,6.60
2024-01-24T23:17:32.985Z,7.28
2024-01-24T23:19:59.984Z,7.07
2024-01-24T23:22:27.765Z,6.80
2024-01-24T23:24:54.421Z,6.90
2024-01-24T23:27:21.110Z,6.93
2024-01-24T23:29:47.654Z,7.38
2024-01-24T23:32:14.196Z,7.50
2024-01-24T23:34:40.911Z,7.40
2024-01-24T23:37:07.611Z,7.15
2024-01-24T23:39:34.272Z,6.63
2024-01-24T23:42:01.207Z,7.90
2024-01-24T23:44:27.704Z,7.20
2024-01-24T23:46:54.245Z,7.83
2024-01-24T23:49:21.065Z,7.22
2024-01-24T23:51:48.069Z,7.38
2024-01-24T23:54:14.728Z,7.65
2024-01-24T23:56:41.275Z,7.40
2024-01-24T23:59:09.177Z,7.13
